sensor_id;sensor_type;location;lat;lon;timestamp;pressure;altitude;pressure_sealevel;temperature;humidity
16194;BME280;8204;53.582;10.080;2023-05-18T00:01:35;102574.34;;;11.50;100.00
16194;BME280;8204;53.582;10.080;2023-05-18T00:04:05;102572.22;;;11.55;100.00
16194;BME280;8204;53.582;10.080;2023-05-18T00:06:34;102565.44;;;11.53;100.00
16194;BME280;8204;53.582;10.080;2023-05-18T00:09:06;102564.19;;;11.46;100.00
16194;BME280;8204;53.582;10.080;2023-05-18T00:11:36;102574.69;;;11.46;100.00
16194;BME280;8204;53.582;10.080;2023-05-18T00:14:06;102583.31;;;11.48;100.00
16194;BME280;8204;53.582;10.080;2023-05-18T00:16:36;102570.16;;;11.48;100.00
16194;BME280;8204;53.582;10.080;2023-05-18T00:19:07;102572.78;;;11.48;100.00
16194;BME280;8204;53.582;10.080;2023-05-18T00:21:40;102571.00;;;11.48;100.00
16194;BME280;8204;53.582;10.080;2023-05-18T00:24:14;102578.88;;;11.48;100.00
16194;BME280;8204;53.582;10.080;2023-05-18T00:26:44;102567.69;;;11.46;100.00
16194;BME280;8204;53.582;10.080;2023-05-18T00:29:14;102579.13;;;11.45;100.00
16194;BME280;8204;53.582;10.080;2023-05-18T00:31:43;102580.81;;;11.46;100.00
16194;BME280;8204;53.582;10.080;2023-05-18T00:34:13;102581.16;;;11.42;100.00
16194;BME280;8204;53.582;10.080;2023-05-18T00:36:43;102577.94;;;11.38;100.00
16194;BME280;8204;53.582;10.080;2023-05-18T00:39:14;102578.66;;;11.40;100.00
16194;BME280;8204;53.582;10.080;2023-05-18T00:41:43;102581.50;;;11.37;100.00
16194;BME280;8204;53.582;10.080;2023-05-18T00:44:12;102584.38;;;11.34;100.00
16194;BME280;8204;53.582;10.080;2023-05-18T00:46:41;102584.25;;;11.36;100.00
16194;BME280;8204;53.582;10.080;2023-05-18T00:49:10;102583.66;;;11.32;100.00
16194;BME280;8204;53.582;10.080;2023-05-18T00:51:40;102591.53;;;11.32;100.00
16194;BME280;8204;53.582;10.080;2023-05-18T00:54:09;102596.78;;;11.32;100.00
16194;BME280;8204;53.582;10.080;2023-05-18T00:56:41;102598.47;;;11.33;100.00
16194;BME280;8204;53.582;10.080;2023-05-18T00:59:11;102587.44;;;11.28;100.00
16194;BME280;8204;53.582;10.080;2023-05-18T01:01:40;102592.09;;;11.25;100.00
16194;BME280;8204;53.582;10.080;2023-05-18T01:04:12;102595.81;;;11.22;100.00
16194;BME280;8204;53.582;10.080;2023-05-18T01:06:41;102591.28;;;11.24;100.00
16194;BME280;8204;53.582;10.080;2023-05-18T01:09:12;102592.69;;;11.28;100.00
16194;BME280;8204;53.582;10.080;2023-05-18T01:11:54;102590.22;;;11.27;100.00
16194;BME280;8204;53.582;10.080;2023-05-18T01:14:30;102588.66;;;11.24;100.00
16194;BME280;8204;53.582;10.080;2023-05-18T01:17:05;102593.09;;;11.24;100.00
16194;BME280;8204;53.582;10.080;2023-05-18T01:19:59;102588.19;;;11.19;100.00
16194;BME280;8204;53.582;10.080;2023-05-18T01:32:40;102598.28;;;11.13;100.00
16194;BME280;8204;53.582;10.080;2023-05-18T01:35:11;102596.53;;;11.13;100.00
16194;BME280;8204;53.582;10.080;2023-05-18T01:37:40;102592.56;;;11.08;100.00
16194;BME280;8204;53.582;10.080;2023-05-18T01:40:10;102592.69;;;11.06;100.00
16194;BME280;8204;53.582;10.080;2023-05-18T01:42:44;102603.88;;;11.08;100.00
16194;BME280;8204;53.582;10.080;2023-05-18T01:45:21;102602.94;;;11.09;100.00
16194;BME280;8204;53.582;10.080;2023-05-18T01:47:55;102602.13;;;11.09;100.00
16194;BME280;8204;53.582;10.080;2023-05-18T01:50:30;102606.75;;;11.05;100.00
16194;BME280;8204;53.582;10.080;2023-05-18T01:53:07;102604.97;;;11.06;100.00
16194;BME280;8204;53.582;10.080;2023-05-18T01:55:38;102608.75;;;10.91;100.00
16194;BME280;8204;53.582;10.080;2023-05-18T01:58:08;102611.59;;;10.88;100.00
16194;BME280;8204;53.582;10.080;2023-05-18T02:00:38;102614.09;;;10.89;100.00
16194;BME280;8204;53.582;10.080;2023-05-18T02:03:11;102605.06;;;10.93;100.00
16194;BME280;8204;53.582;10.080;2023-05-18T02:05:40;102606.84;;;10.93;100.00
16194;BME280;8204;53.582;10.080;2023-05-18T02:08:09;102610.19;;;10.95;100.00
16194;BME280;8204;53.582;10.080;2023-05-18T02:10:38;102614.50;;;10.96;100.00
16194;BME280;8204;53.582;10.080;2023-05-18T02:13:07;102610.41;;;10.92;100.00
16194;BME280;8204;53.582;10.080;2023-05-18T02:15:36;102606.00;;;10.92;100.00
16194;BME280;8204;53.582;10.080;2023-05-18T02:18:05;102608.63;;;10.92;100.00
16194;BME280;8204;53.582;10.080;2023-05-18T02:20:36;102604.47;;;10.90;100.00
16194;BME280;8204;53.582;10.080;2023-05-18T02:23:05;102599.09;;;10.91;100.00
16194;BME280;8204;53.582;10.080;2023-05-18T02:25:34;102599.34;;;10.89;100.00
16194;BME280;8204;53.582;10.080;2023-05-18T02:28:03;102610.66;;;10.89;100.00
16194;BME280;8204;53.582;10.080;2023-05-18T02:30:32;102607.91;;;10.90;100.00
16194;BME280;8204;53.582;10.080;2023-05-18T02:33:08;102611.59;;;10.88;100.00
16194;BME280;8204;53.582;10.080;2023-05-18T02:35:40;102607.56;;;10.84;100.00
16194;BME280;8204;53.582;10.080;2023-05-18T02:38:09;102608.25;;;10.86;100.00
16194;BME280;8204;53.582;10.080;2023-05-18T02:40:38;102611.94;;;10.84;100.00
16194;BME280;8204;53.582;10.080;2023-05-18T02:43:06;102610.03;;;10.86;100.00
16194;BME280;8204;53.582;10.080;2023-05-18T02:45:36;102617.66;;;10.78;100.00
16194;BME280;8204;53.582;10.080;2023-05-18T02:48:05;102622.28;;;10.74;100.00
16194;BME280;8204;53.582;10.080;2023-05-18T02:50:34;102617.28;;;10.71;100.00
16194;BME280;8204;53.582;10.080;2023-05-18T02:53:06;102613.94;;;10.69;100.00
16194;BME280;8204;53.582;10.080;2023-05-18T02:55:35;102619.28;;;10.68;100.00
16194;BME280;8204;53.582;10.080;2023-05-18T02:58:06;102623.81;;;10.66;100.00
16194;BME280;8204;53.582;10.080;2023-05-18T03:00:35;102629.03;;;10.66;100.00
16194;BME280;8204;53.582;10.080;2023-05-18T03:03:04;102617.00;;;10.63;100.00
16194;BME280;8204;53.582;10.080;2023-05-18T03:05:35;102621.19;;;10.66;100.00
16194;BME280;8204;53.582;10.080;2023-05-18T03:08:07;102614.25;;;10.65;100.00
16194;BME280;8204;53.582;10.080;2023-05-18T03:10:36;102622.13;;;10.65;100.00
16194;BME280;8204;53.582;10.080;2023-05-18T03:13:05;102616.16;;;10.63;100.00
16194;BME280;8204;53.582;10.080;2023-05-18T03:15:34;102611.03;;;10.61;100.00
16194;BME280;8204;53.582;10.080;2023-05-18T03:18:05;102623.19;;;10.62;100.00
16194;BME280;8204;53.582;10.080;2023-05-18T03:20:33;102611.88;;;10.62;100.00
16194;BME280;8204;53.582;10.080;2023-05-18T03:23:02;102620.69;;;10.61;100.00
16194;BME280;8204;53.582;10.080;2023-05-18T03:25:34;102622.38;;;10.62;100.00
16194;BME280;8204;53.582;10.080;2023-05-18T03:28:04;102624.13;;;10.61;100.00
16194;BME280;8204;53.582;10.080;2023-05-18T03:30:32;102623.19;;;10.62;100.00
16194;BME280;8204;53.582;10.080;2023-05-18T03:33:02;102623.81;;;10.66;100.00
16194;BME280;8204;53.582;10.080;2023-05-18T03:35:32;102635.13;;;10.66;100.00
16194;BME280;8204;53.582;10.080;2023-05-18T03:38:01;102629.03;;;10.66;100.00
16194;BME280;8204;53.582;10.080;2023-05-18T03:40:30;102635.34;;;10.63;100.00
16194;BME280;8204;53.582;10.080;2023-05-18T03:43:01;102635.56;;;10.60;100.00
16194;BME280;8204;53.582;10.080;2023-05-18T03:45:30;102636.44;;;10.61;100.00
16194;BME280;8204;53.582;10.080;2023-05-18T03:48:00;102638.09;;;10.62;100.00
16194;BME280;8204;53.582;10.080;2023-05-18T03:50:28;102640.59;;;10.63;100.00
16194;BME280;8204;53.582;10.080;2023-05-18T03:52:58;102643.34;;;10.62;100.00
16194;BME280;8204;53.582;10.080;2023-05-18T03:55:27;102641.22;;;10.67;100.00
16194;BME280;8204;53.582;10.080;2023-05-18T03:57:56;102639.41;;;10.67;100.00
16194;BME280;8204;53.582;10.080;2023-05-18T04:00:29;102630.94;;;10.64;100.00
16194;BME280;8204;53.582;10.080;2023-05-18T04:02:58;102640.94;;;10.59;100.00
16194;BME280;8204;53.582;10.080;2023-05-18T04:05:28;102635.69;;;10.59;100.00
16194;BME280;8204;53.582;10.080;2023-05-18T04:07:57;102637.81;;;10.54;100.00
16194;BME280;8204;53.582;10.080;2023-05-18T04:10:26;102645.69;;;10.54;100.00
16194;BME280;8204;53.582;10.080;2023-05-18T04:12:56;102642.81;;;10.57;100.00
16194;BME280;8204;53.582;10.080;2023-05-18T04:15:29;102646.91;;;10.61;100.00
16194;BME280;8204;53.582;10.080;2023-05-18T04:17:59;102651.09;;;10.63;100.00
16194;BME280;8204;53.582;10.080;2023-05-18T04:20:28;102655.47;;;10.63;100.00
16194;BME280;8204;53.582;10.080;2023-05-18T04:22:57;102655.25;;;10.66;100.00
16194;BME280;8204;53.582;10.080;2023-05-18T04:25:26;102657.56;;;10.70;100.00
16194;BME280;8204;53.582;10.080;2023-05-18T04:27:56;102654.59;;;10.75;100.00
16194;BME280;8204;53.582;10.080;2023-05-18T04:30:25;102668.53;;;10.75;100.00
16194;BME280;8204;53.582;10.080;2023-05-18T04:32:57;102672.84;;;10.76;100.00
16194;BME280;8204;53.582;10.080;2023-05-18T04:35:26;102670.09;;;10.78;100.00
16194;BME280;8204;53.582;10.080;2023-05-18T04:37:56;102671.31;;;10.85;100.00
16194;BME280;8204;53.582;10.080;2023-05-18T04:40:25;102673.81;;;10.86;100.00
16194;BME280;8204;53.582;10.080;2023-05-18T04:42:59;102678.97;;;10.88;100.00
16194;BME280;8204;53.582;10.080;2023-05-18T04:45:28;102681.69;;;10.86;100.00
16194;BME280;8204;53.582;10.080;2023-05-18T04:48:01;102686.84;;;10.88;100.00
16194;BME280;8204;53.582;10.080;2023-05-18T04:50:30;102680.72;;;10.87;100.00
16194;BME280;8204;53.582;10.080;2023-05-18T04:53:00;102684.69;;;10.92;100.00
16194;BME280;8204;53.582;10.080;2023-05-18T04:55:32;102686.38;;;10.93;100.00
16194;BME280;8204;53.582;10.080;2023-05-18T04:58:01;102685.16;;;10.87;100.00
16194;BME280;8204;53.582;10.080;2023-05-18T05:00:31;102690.94;;;10.79;100.00
16194;BME280;8204;53.582;10.080;2023-05-18T05:03:02;102695.50;;;10.77;100.00
16194;BME280;8204;53.582;10.080;2023-05-18T05:05:31;102691.31;;;10.75;100.00
16194;BME280;8204;53.582;10.080;2023-05-18T05:08:00;102684.16;;;10.77;100.00
16194;BME280;8204;53.582;10.080;2023-05-18T05:10:31;102695.38;;;10.79;100.00
16194;BME280;8204;53.582;10.080;2023-05-18T05:13:02;102700.84;;;10.76;100.00
16194;BME280;8204;53.582;10.080;2023-05-18T05:15:31;102700.91;;;10.87;100.00
16194;BME280;8204;53.582;10.080;2023-05-18T05:18:03;102700.66;;;10.89;100.00
16194;BME280;8204;53.582;10.080;2023-05-18T05:20:32;102703.53;;;10.97;100.00
16194;BME280;8204;53.582;10.080;2023-05-18T05:23:01;102703.94;;;11.04;100.00
16194;BME280;8204;53.582;10.080;2023-05-18T05:25:30;102707.13;;;10.96;100.00
16194;BME280;8204;53.582;10.080;2023-05-18T05:28:00;102707.25;;;10.95;100.00
16194;BME280;8204;53.582;10.080;2023-05-18T05:30:28;102708.06;;;10.95;100.00
16194;BME280;8204;53.582;10.080;2023-05-18T05:32:57;102705.81;;;10.91;100.00
16194;BME280;8204;53.582;10.080;2023-05-18T05:35:29;102717.44;;;10.87;100.00
16194;BME280;8204;53.582;10.080;2023-05-18T05:37:58;102708.03;;;10.85;100.00
16194;BME280;8204;53.582;10.080;2023-05-18T05:40:27;102722.59;;;10.89;100.00
16194;BME280;8204;53.582;10.080;2023-05-18T05:42:56;102726.25;;;10.86;100.00
16194;BME280;8204;53.582;10.080;2023-05-18T05:45:25;102717.38;;;10.89;100.00
16194;BME280;8204;53.582;10.080;2023-05-18T05:47:56;102723.59;;;10.98;100.00
16194;BME280;8204;53.582;10.080;2023-05-18T05:50:25;102722.41;;;11.02;100.00
16194;BME280;8204;53.582;10.080;2023-05-18T05:52:57;102717.56;;;11.09;100.00
16194;BME280;8204;53.582;10.080;2023-05-18T05:55:26;102723.91;;;11.17;100.00
16194;BME280;8204;53.582;10.080;2023-05-18T05:57:56;102718.78;;;11.27;100.00
16194;BME280;8204;53.582;10.080;2023-05-18T06:00:25;102727.06;;;11.33;100.00
16194;BME280;8204;53.582;10.080;2023-05-18T06:02:53;102728.03;;;11.43;100.00
16194;BME280;8204;53.582;10.080;2023-05-18T06:05:24;102729.69;;;11.44;100.00
16194;BME280;8204;53.582;10.080;2023-05-18T06:07:53;102725.69;;;11.51;100.00
16194;BME280;8204;53.582;10.080;2023-05-18T06:10:24;102728.94;;;11.55;100.00
16194;BME280;8204;53.582;10.080;2023-05-18T06:12:53;102735.72;;;11.57;100.00
16194;BME280;8204;53.582;10.080;2023-05-18T06:15:22;102728.09;;;11.65;100.00
16194;BME280;8204;53.582;10.080;2023-05-18T06:17:52;102736.69;;;11.67;100.00
16194;BME280;8204;53.582;10.080;2023-05-18T06:20:21;102745.91;;;11.72;100.00
16194;BME280;8204;53.582;10.080;2023-05-18T06:22:51;102746.75;;;11.73;100.00
16194;BME280;8204;53.582;10.080;2023-05-18T06:25:20;102747.56;;;11.73;100.00
16194;BME280;8204;53.582;10.080;2023-05-18T06:27:52;102743.13;;;11.74;100.00
16194;BME280;8204;53.582;10.080;2023-05-18T06:30:21;102740.91;;;11.80;100.00
16194;BME280;8204;53.582;10.080;2023-05-18T06:32:50;102735.16;;;11.75;100.00
16194;BME280;8204;53.582;10.080;2023-05-18T06:35:19;102749.84;;;11.78;100.00
16194;BME280;8204;53.582;10.080;2023-05-18T06:37:48;102746.03;;;11.82;100.00
16194;BME280;8204;53.582;10.080;2023-05-18T06:40:18;102759.16;;;11.82;100.00
16194;BME280;8204;53.582;10.080;2023-05-18T06:42:46;102750.44;;;11.81;100.00
16194;BME280;8204;53.582;10.080;2023-05-18T06:45:18;102751.28;;;11.82;100.00
16194;BME280;8204;53.582;10.080;2023-05-18T06:47:48;102754.84;;;11.81;100.00
16194;BME280;8204;53.582;10.080;2023-05-18T06:50:16;102751.06;;;11.96;100.00
16194;BME280;8204;53.582;10.080;2023-05-18T06:52:46;102748.06;;;12.11;100.00
16194;BME280;8204;53.582;10.080;2023-05-18T06:55:17;102750.47;;;12.14;100.00
16194;BME280;8204;53.582;10.080;2023-05-18T06:57:46;102754.41;;;12.09;100.00
16194;BME280;8204;53.582;10.080;2023-05-18T07:00:19;102752.63;;;12.09;100.00
16194;BME280;8204;53.582;10.080;2023-05-18T07:02:48;102744.75;;;12.09;100.00
16194;BME280;8204;53.582;10.080;2023-05-18T07:05:17;102739.59;;;12.08;100.00
16194;BME280;8204;53.582;10.080;2023-05-18T07:07:46;102746.75;;;12.17;100.00
16194;BME280;8204;53.582;10.080;2023-05-18T07:10:16;102738.63;;;12.31;100.00
16194;BME280;8204;53.582;10.080;2023-05-18T07:12:45;102738.72;;;12.40;100.00
16194;BME280;8204;53.582;10.080;2023-05-18T07:15:14;102751.75;;;12.41;100.00
16194;BME280;8204;53.582;10.080;2023-05-18T07:17:47;102750.19;;;12.50;100.00
16194;BME280;8204;53.582;10.080;2023-05-18T07:20:16;102752.94;;;12.48;100.00
16194;BME280;8204;53.582;10.080;2023-05-18T07:22:45;102754.97;;;12.45;100.00
16194;BME280;8204;53.582;10.080;2023-05-18T07:25:14;102749.59;;;12.46;100.00
16194;BME280;8204;53.582;10.080;2023-05-18T07:27:44;102752.13;;;12.48;100.00
16194;BME280;8204;53.582;10.080;2023-05-18T07:30:13;102751.72;;;12.52;100.00
16194;BME280;8204;53.582;10.080;2023-05-18T07:32:42;102753.16;;;12.56;100.00
16194;BME280;8204;53.582;10.080;2023-05-18T07:35:14;102748.47;;;12.71;100.00
16194;BME280;8204;53.582;10.080;2023-05-18T07:37:44;102752.41;;;12.65;100.00
16194;BME280;8204;53.582;10.080;2023-05-18T07:40:14;102746.56;;;12.73;100.00
16194;BME280;8204;53.582;10.080;2023-05-18T07:42:43;102757.06;;;12.73;100.00
16194;BME280;8204;53.582;10.080;2023-05-18T07:45:12;102757.53;;;12.78;100.00
16194;BME280;8204;53.582;10.080;2023-05-18T07:47:48;102761.22;;;12.86;100.00
16194;BME280;8204;53.582;10.080;2023-05-18T07:50:20;102764.94;;;12.84;100.00
16194;BME280;8204;53.582;10.080;2023-05-18T07:52:49;102763.38;;;12.92;100.00
16194;BME280;8204;53.582;10.080;2023-05-18T07:55:19;102766.72;;;12.94;98.17
16194;BME280;8204;53.582;10.080;2023-05-18T07:57:48;102764.81;;;12.96;98.65
16194;BME280;8204;53.582;10.080;2023-05-18T08:00:19;102762.78;;;13.00;98.57
16194;BME280;8204;53.582;10.080;2023-05-18T08:02:49;102765.63;;;12.97;97.46
16194;BME280;8204;53.582;10.080;2023-05-18T08:05:21;102763.72;;;12.99;97.61
16194;BME280;8204;53.582;10.080;2023-05-18T08:07:50;102765.59;;;13.08;100.00
16194;BME280;8204;53.582;10.080;2023-05-18T08:10:19;102761.97;;;13.19;100.00
16194;BME280;8204;53.582;10.080;2023-05-18T08:12:48;102762.34;;;13.35;100.00
16194;BME280;8204;53.582;10.080;2023-05-18T08:15:18;102758.19;;;13.33;96.21
16194;BME280;8204;53.582;10.080;2023-05-18T08:17:47;102768.72;;;13.33;96.57
16194;BME280;8204;53.582;10.080;2023-05-18T08:20:17;102760.75;;;13.44;99.72
16194;BME280;8204;53.582;10.080;2023-05-18T08:22:49;102756.69;;;13.60;100.00
16194;BME280;8204;53.582;10.080;2023-05-18T08:25:18;102756.50;;;13.73;100.00
16194;BME280;8204;53.582;10.080;2023-05-18T08:27:47;102762.16;;;13.88;100.00
16194;BME280;8204;53.582;10.080;2023-05-18T08:30:16;102753.41;;;13.88;96.65
16194;BME280;8204;53.582;10.080;2023-05-18T08:32:46;102742.81;;;13.79;94.78
16194;BME280;8204;53.582;10.080;2023-05-18T08:35:16;102748.22;;;13.77;96.67
16194;BME280;8204;53.582;10.080;2023-05-18T08:37:45;102755.22;;;13.87;95.59
16194;BME280;8204;53.582;10.080;2023-05-18T08:40:17;102742.53;;;13.72;91.83
16194;BME280;8204;53.582;10.080;2023-05-18T08:42:50;102744.59;;;13.69;94.95
16194;BME280;8204;53.582;10.080;2023-05-18T08:45:30;102741.16;;;13.78;95.95
16194;BME280;8204;53.582;10.080;2023-05-18T08:48:02;102732.19;;;13.89;96.16
16194;BME280;8204;53.582;10.080;2023-05-18T08:50:31;102742.19;;;13.95;93.39
16194;BME280;8204;53.582;10.080;2023-05-18T08:53:01;102741.63;;;13.92;93.55
16194;BME280;8204;53.582;10.080;2023-05-18T08:55:35;102737.25;;;14.02;96.92
16194;BME280;8204;53.582;10.080;2023-05-18T08:58:08;102734.19;;;13.97;96.20
16194;BME280;8204;53.582;10.080;2023-05-18T09:00:41;102743.31;;;13.93;95.98
16194;BME280;8204;53.582;10.080;2023-05-18T09:03:11;102741.56;;;13.82;96.87
16194;BME280;8204;53.582;10.080;2023-05-18T09:05:41;102744.81;;;13.66;95.51
16194;BME280;8204;53.582;10.080;2023-05-18T09:08:11;102745.22;;;13.61;94.59
16194;BME280;8204;53.582;10.080;2023-05-18T09:10:43;102750.84;;;13.57;96.98
16194;BME280;8204;53.582;10.080;2023-05-18T09:13:13;102742.78;;;13.49;96.52
16194;BME280;8204;53.582;10.080;2023-05-18T09:15:42;102745.44;;;13.49;96.67
16194;BME280;8204;53.582;10.080;2023-05-18T09:18:12;102737.00;;;13.55;96.85
16194;BME280;8204;53.582;10.080;2023-05-18T09:20:41;102735.91;;;13.57;95.04
16194;BME280;8204;53.582;10.080;2023-05-18T09:23:11;102738.91;;;13.53;93.17
16194;BME280;8204;53.582;10.080;2023-05-18T09:25:45;102740.84;;;13.51;96.40
16194;BME280;8204;53.582;10.080;2023-05-18T09:28:25;102745.88;;;13.54;94.65
16194;BME280;8204;53.582;10.080;2023-05-18T09:30:54;102736.22;;;13.64;94.84
16194;BME280;8204;53.582;10.080;2023-05-18T09:33:24;102731.06;;;13.62;92.41
16194;BME280;8204;53.582;10.080;2023-05-18T09:35:54;102732.16;;;13.60;91.58
16194;BME280;8204;53.582;10.080;2023-05-18T09:38:23;102731.22;;;13.61;94.65
16194;BME280;8204;53.582;10.080;2023-05-18T09:40:55;102724.91;;;13.73;94.50
16194;BME280;8204;53.582;10.080;2023-05-18T09:43:26;102722.25;;;13.73;92.56
16194;BME280;8204;53.582;10.080;2023-05-18T09:45:56;102726.03;;;13.80;92.87
16194;BME280;8204;53.582;10.080;2023-05-18T09:48:25;102716.66;;;13.86;94.09
16194;BME280;8204;53.582;10.080;2023-05-18T09:50:57;102714.50;;;14.01;94.11
16194;BME280;8204;53.582;10.080;2023-05-18T09:53:26;102718.13;;;14.09;94.58
16194;BME280;8204;53.582;10.080;2023-05-18T09:56:00;102724.03;;;14.22;93.79
16194;BME280;8204;53.582;10.080;2023-05-18T09:58:32;102729.22;;;14.33;94.00
16194;BME280;8204;53.582;10.080;2023-05-18T10:01:02;102721.91;;;14.46;94.96
16194;BME280;8204;53.582;10.080;2023-05-18T10:03:33;102722.47;;;14.59;99.83
16194;BME280;8204;53.582;10.080;2023-05-18T10:06:05;102713.72;;;14.68;100.00
16194;BME280;8204;53.582;10.080;2023-05-18T10:08:35;102713.88;;;14.66;90.31
16194;BME280;8204;53.582;10.080;2023-05-18T10:11:07;102724.00;;;14.71;90.94
16194;BME280;8204;53.582;10.080;2023-05-18T10:13:36;102718.00;;;14.50;85.83
16194;BME280;8204;53.582;10.080;2023-05-18T10:16:08;102713.00;;;14.47;88.52
16194;BME280;8204;53.582;10.080;2023-05-18T10:18:37;102710.50;;;14.46;88.36
16194;BME280;8204;53.582;10.080;2023-05-18T10:21:06;102704.25;;;14.56;92.17
16194;BME280;8204;53.582;10.080;2023-05-18T10:23:39;102700.81;;;14.65;88.81
16194;BME280;8204;53.582;10.080;2023-05-18T10:26:11;102708.34;;;14.79;90.35
16194;BME280;8204;53.582;10.080;2023-05-18T10:28:43;102711.38;;;14.93;92.51
16194;BME280;8204;53.582;10.080;2023-05-18T10:31:14;102713.06;;;15.04;90.89
16194;BME280;8204;53.582;10.080;2023-05-18T10:33:45;102711.53;;;15.11;87.16
16194;BME280;8204;53.582;10.080;2023-05-18T10:36:16;102700.41;;;15.17;90.32
16194;BME280;8204;53.582;10.080;2023-05-18T10:38:46;102703.88;;;15.08;86.49
16194;BME280;8204;53.582;10.080;2023-05-18T10:41:19;102702.50;;;15.04;85.83
16194;BME280;8204;53.582;10.080;2023-05-18T10:43:50;102694.00;;;15.10;87.08
16194;BME280;8204;53.582;10.080;2023-05-18T10:46:21;102691.34;;;15.19;82.66
16194;BME280;8204;53.582;10.080;2023-05-18T10:48:52;102696.66;;;15.29;86.43
16194;BME280;8204;53.582;10.080;2023-05-18T10:51:23;102689.16;;;15.24;83.10
16194;BME280;8204;53.582;10.080;2023-05-18T10:53:53;102689.13;;;15.43;88.17
16194;BME280;8204;53.582;10.080;2023-05-18T10:56:30;102689.38;;;15.59;87.86
16194;BME280;8204;53.582;10.080;2023-05-18T10:59:00;102690.69;;;15.72;84.60
16194;BME280;8204;53.582;10.080;2023-05-18T11:01:30;102678.44;;;15.81;85.87
16194;BME280;8204;53.582;10.080;2023-05-18T11:04:00;102686.75;;;15.86;81.12
16194;BME280;8204;53.582;10.080;2023-05-18T11:06:29;102681.59;;;15.94;81.15
16194;BME280;8204;53.582;10.080;2023-05-18T11:09:00;102689.91;;;15.99;80.19
16194;BME280;8204;53.582;10.080;2023-05-18T11:11:49;102685.31;;;15.91;80.56
16194;BME280;8204;53.582;10.080;2023-05-18T11:14:24;102679.97;;;15.83;78.59
16194;BME280;8204;53.582;10.080;2023-05-18T11:17:14;102679.72;;;16.04;80.95
16194;BME280;8204;53.582;10.080;2023-05-18T11:20:11;102679.94;;;16.19;81.06
16194;BME280;8204;53.582;10.080;2023-05-18T11:22:46;102672.22;;;16.26;80.41
16194;BME280;8204;53.582;10.080;2023-05-18T11:25:37;102679.00;;;16.55;83.53
16194;BME280;8204;53.582;10.080;2023-05-18T11:28:10;102674.41;;;16.75;78.60
16194;BME280;8204;53.582;10.080;2023-05-18T11:30:46;102666.59;;;16.90;80.98
16194;BME280;8204;53.582;10.080;2023-05-18T11:33:16;102665.09;;;17.05;78.42
16194;BME280;8204;53.582;10.080;2023-05-18T11:36:01;102668.56;;;17.06;75.37
16194;BME280;8204;53.582;10.080;2023-05-18T11:38:46;102663.84;;;17.17;77.85
16194;BME280;8204;53.582;10.080;2023-05-18T11:41:27;102655.66;;;17.28;78.73
16194;BME280;8204;53.582;10.080;2023-05-18T11:44:02;102660.84;;;17.38;76.26
16194;BME280;8204;53.582;10.080;2023-05-18T11:46:35;102663.72;;;17.44;76.66
16194;BME280;8204;53.582;10.080;2023-05-18T11:49:06;102658.72;;;17.41;76.09
16194;BME280;8204;53.582;10.080;2023-05-18T11:52:00;102645.06;;;17.54;78.00
16194;BME280;8204;53.582;10.080;2023-05-18T11:54:33;102652.72;;;17.57;73.79
16194;BME280;8204;53.582;10.080;2023-05-18T11:57:03;102649.56;;;17.53;73.31
16194;BME280;8204;53.582;10.080;2023-05-18T11:59:37;102655.22;;;17.58;73.21
16194;BME280;8204;53.582;10.080;2023-05-18T12:02:08;102648.91;;;17.59;73.54
16194;BME280;8204;53.582;10.080;2023-05-18T12:04:45;102648.94;;;17.67;75.41
16194;BME280;8204;53.582;10.080;2023-05-18T12:07:16;102647.00;;;17.77;73.08
16194;BME280;8204;53.582;10.080;2023-05-18T12:09:47;102647.75;;;17.95;73.57
16194;BME280;8204;53.582;10.080;2023-05-18T12:12:17;102645.19;;;18.19;74.13
16194;BME280;8204;53.582;10.080;2023-05-18T12:14:55;102640.28;;;18.39;75.61
16194;BME280;8204;53.582;10.080;2023-05-18T12:17:36;102639.97;;;18.58;73.32
16194;BME280;8204;53.582;10.080;2023-05-18T12:20:07;102634.03;;;18.80;73.43
16194;BME280;8204;53.582;10.080;2023-05-18T12:22:37;102639.31;;;19.04;71.33
16194;BME280;8204;53.582;10.080;2023-05-18T12:25:08;102637.00;;;19.17;68.77
16194;BME280;8204;53.582;10.080;2023-05-18T12:27:38;102618.06;;;19.36;72.83
16194;BME280;8204;53.582;10.080;2023-05-18T12:30:15;102622.59;;;19.66;72.27
16194;BME280;8204;53.582;10.080;2023-05-18T12:32:46;102619.53;;;19.84;69.45
16194;BME280;8204;53.582;10.080;2023-05-18T12:35:15;102621.31;;;20.00;68.46
16194;BME280;8204;53.582;10.080;2023-05-18T12:37:46;102622.16;;;20.00;67.02
16194;BME280;8204;53.582;10.080;2023-05-18T12:40:17;102619.63;;;20.07;68.47
16194;BME280;8204;53.582;10.080;2023-05-18T12:42:52;102620.13;;;20.33;69.61
16194;BME280;8204;53.582;10.080;2023-05-18T12:45:25;102613.22;;;20.46;66.88
16194;BME280;8204;53.582;10.080;2023-05-18T12:48:03;102617.84;;;20.52;67.24
16194;BME280;8204;53.582;10.080;2023-05-18T12:50:32;102609.25;;;20.64;66.17
16194;BME280;8204;53.582;10.080;2023-05-18T12:53:04;102603.09;;;20.64;64.50
16194;BME280;8204;53.582;10.080;2023-05-18T12:55:33;102607.97;;;20.83;64.10
16194;BME280;8204;53.582;10.080;2023-05-18T12:58:05;102603.56;;;20.90;63.32
16194;BME280;8204;53.582;10.080;2023-05-18T13:00:37;102599.38;;;20.95;63.67
16194;BME280;8204;53.582;10.080;2023-05-18T13:03:06;102592.78;;;21.20;65.16
16194;BME280;8204;53.582;10.080;2023-05-18T13:05:36;102588.94;;;21.51;63.82
16194;BME280;8204;53.582;10.080;2023-05-18T13:08:06;102587.91;;;21.81;62.83
16194;BME280;8204;53.582;10.080;2023-05-18T13:10:36;102595.97;;;22.02;61.20
16194;BME280;8204;53.582;10.080;2023-05-18T13:13:05;102592.34;;;21.74;57.94